Evangeline, LA (70537)

2:16 AM CDT on August 29, 2016 (GMT -0500)
Jennings | | Change Station
Active Advisory: Flood Warning

Elev 23 ft 30.24 °N, 92.67 °W | Updated 22 minutes ago

Clear
Clear
73 °F
Feels Like 73 °F
N
4
Wind Variable Wind from ENE

Today
High -- | Low -- °F
--% Chance of Precip.
Yesterday
High -- | Low -- °F
Precip. -- in
Pressure 29.95 in
Visibility 10.0 miles
Clouds Clear
Dew Point 72 °F
Humidity 94%
Rainfall 0.00 in
Snow Depth Not available.
6:45 AM 7:35 PM
Waning Crescent, 10% visible
METAR K3R7 290654Z AUTO 06003KT 10SM CLR 23/22 A2995 RMK AO2 LTG DSNT S AND SW
Pressure 29.95 in
Visibility 10.0 miles
Clouds Clear
Dew Point 72 °F
Humidity 94%
Rainfall 0.00 in
Snow Depth Not available.
6:45 AM 7:35 PM
Waning Crescent, 10% visible
METAR K3R7 290654Z AUTO 06003KT 10SM CLR 23/22 A2995 RMK AO2 LTG DSNT S AND SW
The area of storminess, previously known as Invest 99-L that we were monitoring for days, finally developed into Tropical Depression Nine near the Florida Keys on Sunday evening.

There remains a large degree of uncertainty around how much this system will strengthen once it gets into the southeast Gulf of Mexico. For now, the clockwise flow around upper-level high pressure over the eastern United States will steer Tropical Depression Nine west-northwest toward the Gulf. That high will weaken by Tuesday, allowing this system to move more north, and then eventually northeast the next several days on a path toward the Florida Gulf Coast.

10-Day Weather Forecast

Almanac

Astronomy

Aug. 29, 2016 Rise Set
Actual Time
Civil Twilight
Nautical Twilight
Astronomical Twilight
Moon
Length of Visible Light
Length of Day
Tomorrow will be .
, % of the Moon is Illuminated

Today's Extremes

State Highs State Lows

Community

WunderPhotos

Upload Photos

1,935,800 photos uploaded!

WunderBlog® & News

Nearby

Air Quality

  Air Quality AQ Index Pollutant
Not available.

Snow Depth

Station Depth Elevation

Earthquake Activity

City Distance Mag. Time & Date
Minimum magnitude displayed is 2.5.

Coastal Water Temperatures

Place Temperature

Stations

Nearby Weather Stations

Station Location Temp. Windchill Dew Point Humidity Wind Precip. Elev Updated Type
                   

Watches & Warnings

Flood Warning
Issued: 8:02 PM CDT Aug. 28, 2016 – National Weather Service

The Flood Warning continues for
the Mermentau river near Mermentau.
* Until further notice... or until the warning is cancelled.
* At 7:15 PM Sunday the stage was 5.3 feet.
* Minor flooding is occurring and minor flooding is forecast.
* Flood stage is 4.0 feet.
* Forecast... the river will continue to fall to a stage of 5.0 feet
by Tuesday morning.
* Impact... at stages near 5.5 feet... a few recreational camps and
residences are subject to flooding.
* Impact... at stages near 4.0 feet... minor lowland flooding near the
river will occur.


Lat... Lon 3025 9266 3004 9276 3004 9260 3019 9254 3024 9255